createdAt,value
2018-09-10T00:01:04.025Z,3.97
2018-09-10T00:03:32.177Z,2.83
2018-09-10T00:06:00.340Z,3.10
2018-09-10T00:08:28.505Z,3.37
2018-09-10T00:10:56.625Z,3.33
2018-09-10T00:13:24.748Z,3.17
2018-09-10T00:15:52.846Z,3.70
2018-09-10T00:18:20.920Z,2.70
2018-09-10T00:20:49.124Z,3.70
2018-09-10T00:23:17.199Z,3.23
2018-09-10T00:25:45.390Z,2.70
2018-09-10T00:28:13.472Z,2.87
2018-09-10T00:30:41.608Z,3.17
2018-09-10T00:33:09.778Z,3.20
2018-09-10T00:35:37.881Z,3.13
2018-09-10T00:38:06.026Z,2.90
2018-09-10T00:40:34.137Z,3.60
2018-09-10T00:43:02.278Z,3.30
2018-09-10T00:45:30.414Z,3.33
2018-09-10T00:47:58.536Z,3.90
2018-09-10T00:50:26.652Z,3.20
2018-09-10T00:52:54.735Z,3.80
2018-09-10T00:55:22.832Z,3.43
2018-09-10T00:57:50.945Z,2.50
2018-09-10T01:00:19.178Z,3.30
2018-09-10T01:02:47.329Z,3.20
2018-09-10T01:05:15.472Z,3.13
2018-09-10T01:07:43.680Z,3.47
2018-09-10T01:10:11.911Z,3.70
2018-09-10T01:12:40.038Z,2.90
2018-09-10T01:15:08.288Z,3.00
2018-09-10T01:17:36.398Z,3.00
2018-09-10T01:20:04.845Z,3.40
2018-09-10T01:22:33.004Z,3.30
2018-09-10T01:25:01.106Z,3.97
2018-09-10T01:27:29.225Z,3.47
2018-09-10T01:29:57.321Z,3.23
2018-09-10T01:32:25.469Z,3.80
2018-09-10T01:34:59.410Z,2.50
2018-09-10T01:37:27.499Z,3.23
2018-09-10T01:39:55.788Z,2.83
2018-09-10T01:42:23.864Z,3.17
2018-09-10T01:44:51.987Z,2.87
2018-09-10T01:47:20.130Z,2.90
2018-09-10T01:49:48.228Z,3.63
2018-09-10T01:52:16.405Z,4.30
2018-09-10T01:54:44.487Z,3.67
2018-09-10T01:57:12.594Z,3.20
2018-09-10T01:59:40.696Z,3.70
2018-09-10T02:02:08.794Z,3.00
2018-09-10T02:04:36.970Z,3.83
2018-09-10T02:07:05.187Z,3.20
2018-09-10T02:09:33.286Z,3.53
2018-09-10T02:12:01.370Z,2.90
2018-09-10T02:14:29.459Z,3.37
2018-09-10T02:16:57.652Z,3.80
2018-09-10T02:19:25.729Z,3.80
2018-09-10T02:21:53.861Z,3.30
2018-09-10T02:24:21.914Z,2.77
2018-09-10T02:26:49.959Z,3.23
2018-09-10T02:29:18.086Z,3.20
2018-09-10T02:31:46.275Z,3.00
2018-09-10T02:34:14.367Z,2.50
2018-09-10T02:36:42.423Z,3.00
2018-09-10T02:39:10.630Z,3.17
2018-09-10T02:41:42.059Z,3.00
2018-09-10T02:44:10.960Z,3.40
2018-09-10T02:46:39.063Z,3.00
2018-09-10T02:49:07.242Z,3.47
2018-09-10T02:51:35.417Z,3.20
2018-09-10T02:54:03.509Z,3.00
2018-09-10T02:56:31.636Z,2.90
2018-09-10T02:59:00.092Z,4.07
2018-09-10T03:01:28.206Z,3.27
2018-09-10T03:03:56.426Z,3.33
2018-09-10T03:06:24.513Z,3.23
2018-09-10T03:08:52.639Z,3.13
2018-09-10T03:11:21.505Z,3.47
2018-09-10T03:13:49.563Z,3.63
2018-09-10T03:16:17.642Z,3.17
2018-09-10T03:18:45.775Z,3.13
2018-09-10T03:21:13.925Z,3.33
2018-09-10T03:23:41.948Z,3.13
2018-09-10T03:26:10.030Z,3.40
2018-09-10T03:28:38.106Z,3.03
2018-09-10T03:31:06.398Z,3.57
2018-09-10T03:33:34.575Z,3.40
2018-09-10T03:36:02.652Z,2.83
2018-09-10T03:38:30.749Z,3.10
2018-09-10T03:40:58.826Z,3.17
2018-09-10T03:43:26.905Z,2.43
2018-09-10T03:45:55.036Z,3.50
2018-09-10T03:48:23.142Z,3.23
2018-09-10T03:50:51.240Z,2.90
2018-09-10T03:53:19.353Z,3.47
2018-09-10T03:55:47.497Z,3.13
2018-09-10T03:58:15.603Z,3.40
2018-09-10T04:00:43.697Z,3.27
2018-09-10T04:03:11.764Z,2.83
2018-09-10T04:05:39.933Z,3.10
2018-09-10T04:08:08.410Z,3.53
2018-09-10T04:10:36.618Z,3.00
2018-09-10T04:13:04.779Z,3.00
2018-09-10T04:15:32.895Z,2.73
2018-09-10T04:18:00.954Z,3.37
2018-09-10T04:20:29.653Z,3.80
2018-09-10T04:22:57.770Z,4.33
2018-09-10T04:25:25.859Z,3.50
2018-09-10T04:27:54.001Z,3.90
2018-09-10T04:30:22.168Z,3.77
2018-09-10T04:32:50.325Z,3.37
2018-09-10T04:35:18.429Z,3.47
2018-09-10T04:37:46.548Z,3.97
2018-09-10T04:40:14.628Z,3.33
2018-09-10T04:42:42.763Z,3.67
2018-09-10T04:45:10.866Z,4.13
2018-09-10T04:47:39.138Z,3.50
2018-09-10T04:50:07.420Z,3.90
2018-09-10T04:52:35.540Z,3.90
2018-09-10T04:55:03.853Z,3.53
2018-09-10T04:57:31.992Z,4.03
2018-09-10T05:00:01.098Z,4.20
2018-09-10T05:02:29.204Z,3.93
2018-09-10T05:04:57.327Z,3.23
2018-09-10T05:07:25.430Z,2.97
2018-09-10T05:09:53.585Z,4.13
2018-09-10T05:12:21.725Z,3.03
2018-09-10T05:14:49.833Z,3.03
2018-09-10T05:17:17.966Z,3.53
2018-09-10T05:19:46.113Z,3.47
2018-09-10T05:22:14.215Z,3.30
2018-09-10T05:24:42.356Z,4.37
2018-09-10T05:27:11.874Z,3.73
2018-09-10T05:29:40.278Z,4.30
2018-09-10T05:32:08.401Z,4.83
2018-09-10T05:34:36.628Z,4.20
2018-09-10T05:37:04.793Z,3.83
2018-09-10T05:39:32.962Z,4.27
2018-09-10T05:42:01.092Z,4.37
2018-09-10T05:44:29.206Z,4.83
2018-09-10T05:46:57.293Z,4.13
2018-09-10T05:49:25.418Z,4.00
2018-09-10T05:51:53.491Z,3.83
2018-09-10T05:54:21.613Z,4.43
2018-09-10T05:56:49.735Z,3.50
2018-09-10T05:59:17.834Z,3.40
2018-09-10T06:01:45.954Z,3.57
2018-09-10T06:04:14.005Z,3.30
2018-09-10T06:06:42.179Z,4.43
2018-09-10T06:09:10.362Z,3.80
2018-09-10T06:11:38.448Z,4.53
2018-09-10T06:14:06.679Z,3.63
2018-09-10T06:16:34.786Z,3.70
2018-09-10T06:19:02.941Z,3.67
2018-09-10T06:21:31.213Z,3.27
2018-09-10T06:24:00.495Z,3.03
2018-09-10T06:26:28.577Z,4.00
2018-09-10T06:28:56.854Z,4.13
2018-09-10T06:31:25.096Z,3.37
2018-09-10T06:33:55.094Z,3.57
2018-09-10T06:36:23.475Z,3.40
2018-09-10T06:38:51.607Z,3.03
2018-09-10T06:41:19.665Z,3.57
2018-09-10T06:43:50.236Z,3.93
2018-09-10T06:46:18.437Z,3.43
2018-09-10T06:48:46.547Z,3.10
2018-09-10T06:51:14.651Z,3.67
2018-09-10T06:53:42.749Z,3.03
2018-09-10T06:56:10.834Z,3.37
2018-09-10T06:58:38.899Z,3.73
2018-09-10T07:01:07.008Z,3.03
2018-09-10T07:03:35.080Z,3.47
2018-09-10T07:06:03.151Z,3.23
2018-09-10T07:08:31.269Z,3.03
2018-09-10T07:10:59.328Z,3.43
2018-09-10T07:13:27.389Z,3.20
2018-09-10T07:15:55.563Z,3.17
2018-09-10T07:18:23.787Z,3.03
2018-09-10T07:20:52.011Z,2.70
2018-09-10T07:23:20.341Z,2.60
2018-09-10T07:25:48.456Z,3.00
2018-09-10T07:28:16.612Z,3.27
2018-09-10T07:30:44.714Z,2.90
2018-09-10T07:33:12.861Z,2.98
2018-09-10T07:35:41.505Z,2.87
2018-09-10T07:38:09.686Z,3.55
2018-09-10T07:40:37.781Z,3.08
2018-09-10T07:43:05.872Z,2.90
2018-09-10T07:45:34.033Z,3.17
2018-09-10T07:48:02.125Z,3.27
2018-09-10T07:50:30.261Z,3.58
2018-09-10T07:52:58.466Z,3.55
2018-09-10T07:55:26.590Z,3.30
2018-09-10T07:57:54.753Z,3.33
2018-09-10T08:00:22.875Z,3.45
2018-09-10T08:02:51.063Z,3.42
2018-09-10T08:05:19.156Z,3.80
2018-09-10T08:07:47.228Z,4.15
2018-09-10T08:10:15.347Z,3.60
2018-09-10T08:12:43.486Z,3.52
2018-09-10T08:15:11.614Z,3.58
2018-09-10T08:17:40.043Z,3.60
2018-09-10T08:20:08.427Z,3.67
2018-09-10T08:22:36.572Z,3.58
2018-09-10T08:25:04.850Z,3.27
2018-09-10T08:27:33.046Z,3.98
2018-09-10T08:30:01.198Z,3.12
2018-09-10T08:32:29.273Z,3.30
2018-09-10T08:34:57.395Z,3.60
2018-09-10T08:37:25.467Z,3.27
2018-09-10T08:39:53.592Z,3.65
2018-09-10T08:42:21.653Z,3.25
2018-09-10T08:44:49.748Z,4.28
2018-09-10T08:47:17.842Z,3.10
2018-09-10T08:49:45.985Z,2.95
2018-09-10T08:52:14.218Z,3.15
2018-09-10T08:54:42.710Z,3.33
2018-09-10T08:57:10.471Z,3.00
2018-09-10T08:59:38.570Z,3.55
2018-09-10T09:02:06.865Z,3.37
2018-09-10T09:04:34.990Z,3.35
2018-09-10T09:07:03.147Z,3.22
2018-09-10T09:09:31.949Z,3.15
2018-09-10T09:12:00.076Z,3.08
2018-09-10T09:14:28.344Z,3.70
2018-09-10T09:16:56.590Z,3.45
2018-09-10T09:19:24.739Z,3.30
2018-09-10T09:21:52.964Z,3.72
2018-09-10T09:24:21.083Z,3.50
2018-09-10T09:26:49.293Z,3.70
2018-09-10T09:29:17.381Z,3.60
2018-09-10T09:31:45.634Z,3.62
2018-09-10T09:34:13.734Z,3.17
2018-09-10T09:36:47.235Z,2.98
2018-09-10T09:39:20.729Z,3.62
2018-09-10T09:41:54.339Z,3.60
2018-09-10T09:44:27.883Z,3.35
2018-09-10T09:46:56.020Z,3.65
2018-09-10T09:49:32.506Z,3.62
2018-09-10T09:52:00.618Z,3.08
2018-09-10T09:54:28.762Z,2.92
2018-09-10T09:56:56.944Z,3.45
2018-09-10T09:59:25.132Z,3.60
2018-09-10T10:01:57.812Z,2.92
2018-09-10T10:04:25.920Z,3.40
2018-09-10T10:06:54.110Z,3.45
2018-09-10T10:09:22.230Z,3.10
2018-09-10T10:11:50.455Z,3.65
2018-09-10T10:14:18.631Z,3.80
2018-09-10T10:16:46.798Z,3.58
2018-09-10T10:19:14.959Z,3.65
2018-09-10T10:21:43.185Z,3.30
2018-09-10T10:24:11.441Z,3.47
2018-09-10T10:26:39.562Z,3.52
2018-09-10T10:29:07.641Z,3.22
2018-09-10T10:31:35.752Z,3.33
2018-09-10T10:34:03.981Z,3.55
2018-09-10T10:36:32.097Z,3.02
2018-09-10T10:39:00.264Z,3.08
2018-09-10T10:41:28.343Z,2.98
2018-09-10T10:43:56.454Z,3.50
2018-09-10T10:46:24.553Z,3.37
2018-09-10T10:48:52.612Z,3.27
2018-09-10T10:51:20.750Z,3.40
2018-09-10T10:53:49.707Z,3.10
2018-09-10T10:56:17.881Z,3.52
2018-09-10T10:58:45.976Z,3.52
2018-09-10T11:01:14.152Z,3.10
2018-09-10T11:03:42.275Z,3.20
2018-09-10T11:06:10.426Z,3.33
2018-09-10T11:08:38.540Z,2.80
2018-09-10T11:11:06.679Z,3.08
2018-09-10T11:13:34.880Z,3.60
2018-09-10T11:16:03.016Z,3.22
2018-09-10T11:18:31.140Z,3.27
2018-09-10T11:20:59.229Z,3.35
2018-09-10T11:23:27.349Z,2.87
2018-09-10T11:25:55.536Z,3.20
2018-09-10T11:28:23.685Z,3.02
2018-09-10T11:30:51.834Z,3.10
2018-09-10T11:33:19.983Z,3.58
2018-09-10T11:35:48.098Z,3.10
2018-09-10T11:38:16.180Z,3.08
2018-09-10T11:40:44.995Z,3.20
2018-09-10T11:43:13.109Z,2.90
2018-09-10T11:45:41.311Z,3.75
2018-09-10T11:48:09.638Z,3.58
2018-09-10T11:50:37.733Z,3.30
2018-09-10T11:53:05.895Z,3.45
2018-09-10T11:55:34.064Z,3.05
2018-09-10T11:58:02.179Z,3.20
2018-09-10T12:00:30.410Z,3.00
2018-09-10T12:02:58.529Z,3.17
2018-09-10T12:05:30.623Z,3.17
2018-09-10T12:08:03.580Z,3.20
2018-09-10T12:10:31.692Z,3.15
2018-09-10T12:12:59.825Z,3.10
2018-09-10T12:15:28.001Z,2.85
2018-09-10T12:17:56.156Z,3.12
2018-09-10T12:20:24.280Z,3.55
2018-09-10T12:22:52.363Z,3.77
2018-09-10T12:25:20.493Z,2.90
2018-09-10T12:27:48.661Z,3.30
2018-09-10T12:30:16.787Z,3.52
2018-09-10T12:32:44.903Z,3.10
2018-09-10T12:35:13.032Z,3.22
2018-09-10T12:37:41.275Z,3.02
2018-09-10T12:40:09.364Z,3.30
2018-09-10T12:42:37.444Z,3.45
2018-09-10T12:45:05.565Z,3.30
2018-09-10T12:47:33.668Z,3.70
2018-09-10T12:50:01.807Z,2.80
2018-09-10T12:52:30.828Z,3.50
2018-09-10T12:54:58.959Z,3.02
2018-09-10T12:57:27.042Z,3.47
2018-09-10T12:59:55.133Z,3.30
2018-09-10T13:02:23.311Z,3.37
2018-09-10T13:04:51.367Z,3.70
2018-09-10T13:07:20.390Z,3.50
2018-09-10T13:09:48.479Z,3.30
2018-09-10T13:12:16.602Z,2.80
2018-09-10T13:14:44.703Z,3.30
2018-09-10T13:17:12.760Z,3.45
2018-09-10T13:19:40.908Z,3.47
2018-09-10T13:22:09.091Z,2.72
2018-09-10T13:24:37.151Z,3.45
2018-09-10T13:27:05.419Z,3.25
2018-09-10T13:29:33.577Z,3.25
2018-09-10T13:32:01.710Z,3.22
2018-09-10T13:34:29.827Z,3.20
2018-09-10T13:36:58.007Z,3.08
2018-09-10T13:39:26.170Z,2.85
2018-09-10T13:41:54.422Z,3.05
2018-09-10T13:44:22.571Z,2.77
2018-09-10T13:46:50.756Z,2.60
2018-09-10T13:49:18.868Z,3.10
2018-09-10T13:51:46.977Z,3.00
2018-09-10T13:54:15.184Z,2.70
2018-09-10T13:56:43.250Z,2.95
2018-09-10T13:59:11.355Z,2.90
2018-09-10T14:01:39.554Z,2.80
2018-09-10T14:04:07.707Z,3.12
2018-09-10T14:06:35.877Z,2.80
2018-09-10T14:09:05.118Z,2.42
2018-09-10T14:11:33.351Z,3.20
2018-09-10T14:14:01.526Z,3.10
2018-09-10T14:16:29.651Z,2.77
2018-09-10T14:18:57.846Z,2.72
2018-09-10T14:21:25.997Z,2.87
2018-09-10T14:23:54.157Z,2.55
2018-09-10T14:26:22.293Z,2.92
2018-09-10T14:28:50.392Z,2.90
2018-09-10T14:31:18.555Z,2.50
2018-09-10T14:33:46.683Z,3.20
2018-09-10T14:36:14.746Z,2.55
2018-09-10T14:38:42.842Z,2.80
2018-09-10T14:41:11.242Z,2.42
2018-09-10T14:43:39.340Z,2.52
2018-09-10T14:46:07.605Z,2.90
2018-09-10T14:48:35.694Z,2.05
2018-09-10T14:51:03.839Z,2.75
2018-09-10T14:53:31.981Z,2.83
2018-09-10T14:56:00.086Z,2.27
2018-09-10T14:58:28.229Z,2.55
2018-09-10T15:00:56.299Z,3.08
2018-09-10T15:03:25.315Z,2.75
2018-09-10T15:05:53.515Z,2.33
2018-09-10T15:08:21.637Z,2.50
2018-09-10T15:10:49.779Z,2.35
2018-09-10T15:13:17.905Z,2.22
2018-09-10T15:15:46.002Z,3.00
2018-09-10T15:18:14.235Z,2.30
2018-09-10T15:20:42.407Z,2.60
2018-09-10T15:23:10.602Z,2.60
2018-09-10T15:25:38.690Z,2.27
2018-09-10T15:28:06.763Z,2.83
2018-09-10T15:30:34.866Z,1.93
2018-09-10T15:33:02.939Z,2.20
2018-09-10T15:35:30.985Z,2.80
2018-09-10T15:37:59.126Z,2.57
2018-09-10T15:40:27.251Z,2.60
2018-09-10T15:42:55.342Z,2.17
2018-09-10T15:45:23.518Z,2.60
2018-09-10T15:47:51.589Z,2.33
2018-09-10T15:50:19.719Z,2.33
2018-09-10T15:52:47.789Z,3.00
2018-09-10T15:55:15.918Z,2.30
2018-09-10T15:57:44.061Z,2.57
2018-09-10T16:00:12.988Z,2.60
2018-09-10T16:02:41.042Z,2.47
2018-09-10T16:05:09.196Z,2.77
2018-09-10T16:07:37.277Z,3.30
2018-09-10T16:10:05.526Z,2.33
2018-09-10T16:12:33.642Z,2.33
2018-09-10T16:15:01.754Z,2.70
2018-09-10T16:17:29.845Z,2.50
2018-09-10T16:19:58.038Z,2.60
2018-09-10T16:22:26.108Z,2.70
2018-09-10T16:24:54.226Z,2.60
2018-09-10T16:27:22.369Z,2.77
2018-09-10T16:29:50.522Z,2.33
2018-09-10T16:32:18.714Z,2.70
2018-09-10T16:34:46.856Z,3.00
2018-09-10T16:37:14.987Z,2.87
2018-09-10T16:39:43.306Z,2.40
2018-09-10T16:42:11.427Z,2.60
2018-09-10T16:44:39.506Z,2.50
2018-09-10T16:47:07.679Z,2.33
2018-09-10T16:49:35.844Z,1.90
2018-09-10T16:52:03.966Z,2.43
2018-09-10T16:54:32.169Z,2.77
2018-09-10T16:57:00.274Z,2.50
2018-09-10T16:59:28.417Z,2.20
2018-09-10T17:01:56.559Z,3.07
2018-09-10T17:04:25.289Z,3.07
2018-09-10T17:06:53.371Z,2.57
2018-09-10T17:09:21.488Z,2.33
2018-09-10T17:11:49.562Z,3.03
2018-09-10T17:14:17.885Z,2.70
2018-09-10T17:16:45.995Z,2.50
2018-09-10T17:19:14.103Z,2.57
2018-09-10T17:21:42.175Z,2.80
2018-09-10T17:24:10.301Z,2.50
2018-09-10T17:26:38.379Z,2.50
2018-09-10T17:29:07.032Z,2.70
2018-09-10T17:31:35.216Z,2.90
2018-09-10T17:34:03.383Z,2.60
2018-09-10T17:36:31.602Z,2.80
2018-09-10T17:38:59.724Z,2.90
2018-09-10T17:41:28.728Z,2.93
2018-09-10T17:43:56.831Z,2.57
2018-09-10T17:46:25.014Z,3.00
2018-09-10T17:48:53.335Z,2.73
2018-09-10T17:51:21.527Z,2.37
2018-09-10T17:53:49.800Z,2.10
2018-09-10T17:56:18.023Z,2.47
2018-09-10T17:58:46.220Z,2.20
2018-09-10T18:01:14.443Z,2.30
2018-09-10T18:03:43.537Z,2.70
2018-09-10T18:06:11.786Z,2.10
2018-09-10T18:08:39.989Z,2.57
2018-09-10T18:11:08.409Z,2.53
2018-09-10T18:13:36.721Z,2.73
2018-09-10T18:16:04.919Z,2.70
2018-09-10T18:18:33.045Z,2.53
2018-09-10T18:21:01.166Z,2.80
2018-09-10T18:23:29.312Z,2.90
2018-09-10T18:25:57.434Z,2.37
2018-09-10T18:28:25.663Z,3.17
2018-09-10T18:30:53.765Z,3.07
2018-09-10T18:33:21.905Z,2.20
2018-09-10T18:35:50.026Z,2.00
2018-09-10T18:38:18.164Z,2.10
2018-09-10T18:40:46.368Z,2.83
2018-09-10T18:43:14.613Z,2.23
2018-09-10T18:45:42.910Z,2.67
2018-09-10T18:48:11.639Z,2.70
2018-09-10T18:50:39.762Z,3.10
2018-09-10T18:53:08.021Z,2.43
2018-09-10T18:55:36.179Z,2.40
2018-09-10T18:58:04.469Z,2.63
2018-09-10T19:00:32.765Z,2.13
2018-09-10T19:03:00.954Z,2.57
2018-09-10T19:05:29.185Z,2.70
2018-09-10T19:07:57.338Z,2.50
2018-09-10T19:10:25.507Z,2.97
2018-09-10T19:12:53.823Z,2.60
2018-09-10T19:15:22.035Z,2.50
2018-09-10T19:17:50.265Z,2.90
2018-09-10T19:20:18.464Z,2.43
2018-09-10T19:22:46.690Z,2.60
2018-09-10T19:25:14.921Z,2.27
2018-09-10T19:27:43.209Z,2.33
2018-09-10T19:30:12.356Z,2.37
2018-09-10T19:32:40.460Z,2.60
2018-09-10T19:35:08.709Z,2.37
2018-09-10T19:37:37.741Z,2.37
2018-09-10T19:40:05.893Z,2.90
2018-09-10T19:42:34.152Z,2.50
2018-09-10T19:45:03.347Z,2.67
2018-09-10T19:47:31.534Z,2.30
2018-09-10T19:49:59.713Z,2.60
2018-09-10T19:52:27.908Z,2.37
2018-09-10T19:54:56.278Z,2.20
2018-09-10T19:57:24.439Z,2.40
2018-09-10T19:59:52.628Z,2.77
2018-09-10T20:02:20.804Z,2.90
2018-09-10T20:04:49.013Z,2.80
2018-09-10T20:07:17.286Z,2.20
2018-09-10T20:09:45.565Z,2.60
2018-09-10T20:12:13.649Z,3.03
2018-09-10T20:14:41.859Z,2.40
2018-09-10T20:17:10.060Z,2.77
2018-09-10T20:19:38.492Z,2.63
2018-09-10T20:22:07.228Z,2.87
2018-09-10T20:24:35.410Z,2.43
2018-09-10T20:27:03.655Z,2.20
2018-09-10T20:29:31.802Z,2.47
2018-09-10T20:31:59.972Z,2.43
2018-09-10T20:34:28.091Z,3.00
2018-09-10T20:36:56.252Z,2.33
2018-09-10T20:39:24.434Z,2.73
2018-09-10T20:41:52.566Z,2.53
2018-09-10T20:44:20.659Z,2.63
2018-09-10T20:46:48.842Z,2.43
2018-09-10T20:49:16.934Z,2.50
2018-09-10T20:51:45.068Z,2.43
2018-09-10T20:54:13.165Z,2.80
2018-09-10T20:56:41.296Z,2.13
2018-09-10T20:59:09.448Z,2.60
2018-09-10T21:01:37.643Z,2.53
2018-09-10T21:04:05.834Z,2.53
2018-09-10T21:06:34.088Z,2.50
2018-09-10T21:11:40.092Z,2.13
2018-09-10T21:14:08.267Z,3.00
2018-09-10T21:16:36.448Z,2.87
2018-09-10T21:19:04.713Z,2.87
2018-09-10T21:21:32.863Z,2.60
2018-09-10T21:24:01.031Z,2.50
2018-09-10T21:26:29.104Z,2.30
2018-09-10T21:28:57.205Z,2.87
2018-09-10T21:31:25.335Z,2.27
2018-09-10T21:33:53.416Z,2.43
2018-09-10T21:36:21.488Z,2.60
2018-09-10T21:38:49.686Z,2.17
2018-09-10T21:41:17.874Z,2.87
2018-09-10T21:43:45.992Z,3.00
2018-09-10T21:46:14.105Z,2.30
2018-09-10T21:48:42.218Z,2.40
2018-09-10T21:51:10.404Z,2.80
2018-09-10T21:53:38.545Z,2.87
2018-09-10T21:56:06.720Z,3.17
2018-09-10T21:58:34.863Z,2.70
2018-09-10T22:01:02.989Z,2.70
2018-09-10T22:03:31.078Z,3.30
2018-09-10T22:05:59.201Z,2.70
2018-09-10T22:08:27.369Z,2.70
2018-09-10T22:10:55.467Z,2.50
2018-09-10T22:13:23.601Z,2.50
2018-09-10T22:15:52.442Z,2.57
2018-09-10T22:18:20.542Z,2.50
2018-09-10T22:20:48.684Z,2.30
2018-09-10T22:23:16.850Z,2.57
2018-09-10T22:25:44.939Z,2.93
2018-09-10T22:28:13.083Z,3.10
2018-09-10T22:30:41.234Z,2.93
2018-09-10T22:33:09.412Z,2.77
2018-09-10T22:35:37.613Z,2.63
2018-09-10T22:38:05.689Z,2.67
2018-09-10T22:40:33.849Z,3.27
2018-09-10T22:43:01.942Z,2.37
2018-09-10T22:45:30.022Z,2.70
2018-09-10T22:47:58.152Z,3.10
2018-09-10T22:50:26.329Z,2.70
2018-09-10T22:52:54.410Z,2.83
2018-09-10T22:55:22.488Z,2.67
2018-09-10T22:57:50.583Z,3.00
2018-09-10T23:00:18.806Z,2.80
2018-09-10T23:02:46.923Z,3.10
2018-09-10T23:05:15.076Z,2.93
2018-09-10T23:07:43.207Z,2.57
2018-09-10T23:10:11.349Z,3.03
2018-09-10T23:12:39.434Z,2.83
2018-09-10T23:15:07.589Z,3.13
2018-09-10T23:17:35.711Z,2.43
2018-09-10T23:20:03.903Z,3.17
2018-09-10T23:22:31.982Z,2.73
2018-09-10T23:25:00.072Z,2.70
2018-09-10T23:27:28.274Z,3.40
2018-09-10T23:29:56.436Z,2.37
2018-09-10T23:32:24.523Z,2.70
2018-09-10T23:34:52.648Z,2.63
2018-09-10T23:37:20.710Z,2.80
2018-09-10T23:39:48.850Z,3.00
2018-09-10T23:42:17.036Z,2.90
2018-09-10T23:44:45.114Z,3.43
2018-09-10T23:47:13.208Z,2.93
2018-09-10T23:49:41.278Z,2.73
2018-09-10T23:52:09.421Z,2.63
2018-09-10T23:54:37.486Z,3.03
2018-09-10T23:57:05.632Z,2.80
2018-09-10T23:59:33.756Z,2.87
